createdAt,value
2023-01-02T00:00:38.740Z,100.00
2023-01-02T00:01:41.621Z,100.00
2023-01-02T00:02:59.136Z,100.00
2023-01-02T00:04:01.615Z,100.00
2023-01-02T00:05:04.182Z,100.00
2023-01-02T00:06:07.004Z,100.00
2023-01-02T00:07:09.490Z,100.00
2023-01-02T00:08:11.724Z,100.00
2023-01-02T00:09:14.009Z,100.00
2023-01-02T00:10:16.339Z,100.00
2023-01-02T00:11:18.644Z,100.00
2023-01-02T00:12:20.831Z,100.00
2023-01-02T00:13:23.388Z,100.00
2023-01-02T00:14:25.625Z,100.00
2023-01-02T00:15:27.912Z,100.00
2023-01-02T00:16:30.227Z,100.00
2023-01-02T00:17:32.488Z,100.00
2023-01-02T00:18:34.716Z,100.00
2023-01-02T00:19:41.935Z,100.00
2023-01-02T00:20:44.281Z,100.00
2023-01-02T00:21:46.570Z,100.00
2023-01-02T00:22:48.807Z,100.00
2023-01-02T00:23:51.003Z,100.00
2023-01-02T00:24:53.196Z,100.00
2023-01-02T00:25:56.486Z,100.00
2023-01-02T00:26:58.766Z,100.00
2023-01-02T00:28:02.068Z,100.00
2023-01-02T00:29:04.348Z,100.00
2023-01-02T00:30:07.085Z,100.00
2023-01-02T00:31:11.868Z,100.00
2023-01-02T00:32:15.332Z,100.00
2023-01-02T00:33:17.530Z,100.00
2023-01-02T00:34:19.877Z,100.00
2023-01-02T00:35:22.063Z,100.00
2023-01-02T00:36:24.393Z,100.00
2023-01-02T00:37:26.595Z,100.00
2023-01-02T00:38:28.902Z,100.00
2023-01-02T00:39:31.079Z,100.00
2023-01-02T00:40:33.709Z,100.00
2023-01-02T00:41:36.786Z,100.00
2023-01-02T00:42:42.723Z,100.00
2023-01-02T00:43:45.035Z,100.00
2023-01-02T00:44:47.249Z,100.00
2023-01-02T00:45:49.471Z,100.00
2023-01-02T00:46:51.736Z,100.00
2023-01-02T00:47:54.023Z,100.00
2023-01-02T00:48:56.243Z,100.00
2023-01-02T00:49:58.458Z,100.00
2023-01-02T00:51:01.709Z,100.00
2023-01-02T00:52:04.042Z,100.00
2023-01-02T00:53:06.249Z,100.00
2023-01-02T00:54:08.700Z,100.00
2023-01-02T00:55:10.890Z,100.00
2023-01-02T00:56:15.029Z,100.00
2023-01-02T00:57:17.256Z,100.00
2023-01-02T00:58:19.479Z,100.00
2023-01-02T00:59:21.900Z,100.00
2023-01-02T01:00:24.608Z,100.00
2023-01-02T01:01:26.994Z,100.00
2023-01-02T01:02:29.454Z,100.00
2023-01-02T01:03:31.780Z,100.00
2023-01-02T01:04:35.242Z,100.00
2023-01-02T01:05:40.265Z,100.00
2023-01-02T01:06:42.451Z,100.00
2023-01-02T01:07:44.651Z,100.00
2023-01-02T01:08:47.183Z,100.00
2023-01-02T01:09:49.406Z,100.00
2023-01-02T01:10:51.870Z,100.00
2023-01-02T01:11:54.653Z,100.00
2023-01-02T01:12:56.896Z,100.00
2023-01-02T01:13:59.148Z,100.00
2023-01-02T01:15:01.560Z,100.00
2023-01-02T01:16:10.132Z,100.00
2023-01-02T01:17:12.411Z,100.00
2023-01-02T01:18:14.738Z,100.00
2023-01-02T01:19:16.978Z,100.00
2023-01-02T01:20:19.174Z,100.00
2023-01-02T01:21:21.517Z,100.00
2023-01-02T01:22:23.823Z,100.00
2023-01-02T01:23:26.053Z,100.00
2023-01-02T01:24:28.557Z,100.00
2023-01-02T01:25:30.797Z,100.00
2023-01-02T01:26:33.462Z,100.00
2023-01-02T01:27:35.751Z,100.00
2023-01-02T01:28:38.641Z,100.00
2023-01-02T01:29:40.832Z,100.00
2023-01-02T01:30:43.083Z,100.00
2023-01-02T01:31:45.466Z,100.00
2023-01-02T01:32:47.773Z,100.00
2023-01-02T01:33:50.968Z,100.00
2023-01-02T01:34:53.152Z,100.00
2023-01-02T01:35:55.307Z,100.00
2023-01-02T01:36:57.522Z,100.00
2023-01-02T01:37:59.759Z,100.00
2023-01-02T01:39:02.312Z,100.00
2023-01-02T01:40:04.953Z,100.00
2023-01-02T01:41:07.942Z,100.00
2023-01-02T01:42:13.346Z,100.00
2023-01-02T01:43:15.667Z,100.00
2023-01-02T01:44:42.821Z,100.00
2023-01-02T01:45:45.338Z,100.00
2023-01-02T01:46:47.812Z,100.00
2023-01-02T01:47:53.675Z,100.00
2023-01-02T01:49:20.330Z,100.00
2023-01-02T01:50:29.573Z,100.00
2023-01-02T01:51:36.576Z,100.00
2023-01-02T01:52:47.458Z,100.00
2023-01-02T01:53:53.484Z,100.00
2023-01-02T01:55:03.700Z,100.00
2023-01-02T01:56:08.466Z,100.00
2023-01-02T01:57:22.268Z,100.00
2023-01-02T01:58:31.623Z,100.00
2023-01-02T01:59:34.832Z,100.00
2023-01-02T02:01:41.612Z,100.00
2023-01-02T02:02:51.554Z,100.00
2023-01-02T02:03:54.716Z,100.00
2023-01-02T02:04:59.690Z,100.00
2023-01-02T02:06:02.969Z,100.00
2023-01-02T02:07:05.143Z,100.00
2023-01-02T02:08:18.850Z,100.00
2023-01-02T02:09:29.803Z,100.00
2023-01-02T02:10:32.291Z,100.00
2023-01-02T02:11:34.851Z,100.00
2023-01-02T02:12:37.227Z,100.00
2023-01-02T02:13:40.547Z,100.00
2023-01-02T02:14:43.073Z,100.00
2023-01-02T02:16:15.967Z,100.00
2023-01-02T02:17:37.189Z,100.00
2023-01-02T02:18:45.030Z,100.00
2023-01-02T02:20:06.153Z,100.00
2023-01-02T02:21:22.385Z,100.00
2023-01-02T02:23:13.506Z,100.00
2023-01-02T02:24:52.949Z,100.00
2023-01-02T02:26:15.697Z,100.00
2023-01-02T02:27:33.319Z,100.00
2023-01-02T02:28:41.431Z,100.00
2023-01-02T02:30:08.121Z,100.00
2023-01-02T02:31:18.111Z,100.00
2023-01-02T02:32:40.363Z,100.00
2023-01-02T02:34:13.394Z,100.00
2023-01-02T02:35:44.003Z,100.00
2023-01-02T02:37:09.112Z,100.00
2023-01-02T02:38:14.776Z,100.00
2023-01-02T02:39:30.955Z,100.00
2023-01-02T02:40:48.524Z,100.00
2023-01-02T02:42:14.522Z,100.00
2023-01-02T02:43:25.457Z,100.00
2023-01-02T02:44:41.488Z,100.00
2023-01-02T02:46:10.628Z,100.00
2023-01-02T02:48:06.713Z,100.00
2023-01-02T02:49:29.153Z,100.00
2023-01-02T02:50:44.428Z,100.00
2023-01-02T02:51:58.896Z,100.00
2023-01-02T02:53:04.469Z,100.00
2023-01-02T02:54:14.544Z,100.00
2023-01-02T02:55:29.528Z,100.00
2023-01-02T02:56:32.354Z,100.00
2023-01-02T02:57:36.754Z,100.00
2023-01-02T02:58:41.431Z,100.00
2023-01-02T02:59:43.784Z,100.00
2023-01-02T03:00:46.222Z,100.00
2023-01-02T03:01:48.583Z,100.00
2023-01-02T03:02:52.520Z,100.00
2023-01-02T03:03:54.894Z,100.00
2023-01-02T03:05:02.985Z,100.00
2023-01-02T03:06:14.964Z,100.00
2023-01-02T03:07:22.842Z,100.00
2023-01-02T03:09:02.291Z,100.00
2023-01-02T03:10:18.267Z,100.00
2023-01-02T03:11:25.948Z,100.00
2023-01-02T03:12:46.249Z,100.00
2023-01-02T03:14:13.142Z,100.00
2023-01-02T03:15:36.891Z,100.00
2023-01-02T03:16:41.527Z,100.00
2023-01-02T03:18:11.308Z,100.00
2023-01-02T03:19:21.638Z,100.00
2023-01-02T03:20:28.673Z,100.00
2023-01-02T03:21:36.082Z,100.00
2023-01-02T03:22:43.002Z,100.00
2023-01-02T03:23:47.681Z,100.00
2023-01-02T03:24:53.900Z,100.00
2023-01-02T03:25:58.349Z,100.00
2023-01-02T03:27:08.980Z,100.00
2023-01-02T03:28:14.151Z,100.00
2023-01-02T03:29:22.083Z,100.00
2023-01-02T03:30:24.533Z,100.00
2023-01-02T03:31:31.261Z,100.00
2023-01-02T03:32:38.292Z,100.00
2023-01-02T03:33:46.357Z,100.00
2023-01-02T03:34:51.205Z,100.00
2023-01-02T03:35:59.560Z,100.00
2023-01-02T03:37:10.938Z,100.00
2023-01-02T03:38:21.139Z,100.00
2023-01-02T03:39:28.693Z,100.00
2023-01-02T03:40:37.414Z,100.00
2023-01-02T03:42:05.575Z,100.00
2023-01-02T03:43:17.165Z,100.00
2023-01-02T03:44:24.214Z,100.00
2023-01-02T03:45:31.260Z,100.00
2023-01-02T03:46:41.889Z,100.00
2023-01-02T03:48:13.732Z,100.00
2023-01-02T03:49:22.988Z,100.00
2023-01-02T03:50:34.356Z,100.00
2023-01-02T03:51:36.663Z,100.00
2023-01-02T03:52:38.891Z,100.00
2023-01-02T03:53:41.436Z,100.00
2023-01-02T03:54:43.701Z,100.00
2023-01-02T03:56:31.943Z,100.00
2023-01-02T03:57:59.769Z,100.00
2023-01-02T03:59:15.557Z,100.00
2023-01-02T04:00:19.930Z,100.00
2023-01-02T04:01:50.688Z,100.00
2023-01-02T04:03:04.968Z,100.00
2023-01-02T04:04:25.088Z,100.00
2023-01-02T04:05:48.356Z,100.00
2023-01-02T04:06:58.190Z,100.00
2023-01-02T04:08:13.470Z,100.00
2023-01-02T04:09:22.159Z,100.00
2023-01-02T04:10:27.171Z,100.00
2023-01-02T04:11:31.906Z,100.00
2023-01-02T04:12:36.975Z,100.00
2023-01-02T04:13:44.401Z,100.00
2023-01-02T04:14:51.761Z,100.00
2023-01-02T04:15:55.150Z,100.00
2023-01-02T04:17:01.019Z,100.00
2023-01-02T04:18:11.948Z,100.00
2023-01-02T04:19:23.050Z,100.00
2023-01-02T04:20:30.702Z,100.00
2023-01-02T04:21:37.215Z,100.00
2023-01-02T04:22:47.218Z,100.00
2023-01-02T04:23:59.337Z,100.00
2023-01-02T04:25:08.342Z,100.00
2023-01-02T04:26:21.133Z,100.00
2023-01-02T04:27:31.683Z,100.00
2023-01-02T04:28:34.620Z,100.00
2023-01-02T04:29:36.910Z,100.00
2023-01-02T04:30:42.842Z,100.00
2023-01-02T04:31:53.641Z,100.00
2023-01-02T04:33:00.112Z,100.00
2023-01-02T04:34:04.635Z,100.00
2023-01-02T04:35:10.301Z,100.00
2023-01-02T04:36:15.630Z,100.00
2023-01-02T04:37:35.561Z,100.00
2023-01-02T04:38:38.460Z,100.00
2023-01-02T04:39:40.690Z,100.00
2023-01-02T04:40:43.010Z,100.00
2023-01-02T04:41:45.444Z,100.00
2023-01-02T04:42:47.667Z,100.00
2023-01-02T04:43:51.376Z,100.00
2023-01-02T04:44:53.609Z,100.00
2023-01-02T04:45:55.936Z,100.00
2023-01-02T04:46:58.216Z,100.00
2023-01-02T04:48:00.711Z,100.00
2023-01-02T04:49:03.227Z,100.00
2023-01-02T04:50:07.098Z,100.00
2023-01-02T04:51:09.310Z,100.00
2023-01-02T04:52:11.760Z,100.00
2023-01-02T04:53:14.161Z,100.00
2023-01-02T04:54:16.398Z,100.00
2023-01-02T04:55:18.636Z,100.00
2023-01-02T04:56:21.495Z,100.00
2023-01-02T04:57:24.333Z,100.00
2023-01-02T04:58:28.058Z,100.00
2023-01-02T04:59:30.300Z,100.00
2023-01-02T05:00:33.368Z,100.00
2023-01-02T05:01:35.684Z,100.00
2023-01-02T05:02:39.591Z,100.00
2023-01-02T05:03:43.855Z,100.00
2023-01-02T05:04:46.253Z,100.00
2023-01-02T05:05:48.487Z,100.00
2023-01-02T05:06:50.809Z,100.00
2023-01-02T05:07:53.045Z,100.00
2023-01-02T05:08:55.209Z,100.00
2023-01-02T05:09:57.425Z,100.00
2023-01-02T05:11:12.634Z,100.00
2023-01-02T05:12:15.005Z,100.00
2023-01-02T05:13:17.340Z,100.00
2023-01-02T05:14:19.639Z,100.00
2023-01-02T05:15:21.895Z,100.00
2023-01-02T05:16:24.378Z,100.00
2023-01-02T05:17:26.639Z,100.00
2023-01-02T05:18:31.840Z,100.00
2023-01-02T05:19:34.094Z,100.00
2023-01-02T05:20:36.342Z,100.00
2023-01-02T05:21:57.362Z,100.00
2023-01-02T05:23:18.083Z,100.00
2023-01-02T05:24:20.296Z,100.00
2023-01-02T05:25:22.545Z,100.00
2023-01-02T05:26:25.040Z,100.00
2023-01-02T05:27:27.400Z,100.00
2023-01-02T05:28:35.114Z,100.00
2023-01-02T05:29:40.499Z,100.00
2023-01-02T05:30:42.678Z,100.00
2023-01-02T05:31:45.023Z,100.00
2023-01-02T05:32:48.001Z,100.00
2023-01-02T05:33:57.248Z,100.00
2023-01-02T05:34:59.476Z,100.00
2023-01-02T05:36:03.975Z,100.00
2023-01-02T05:37:06.173Z,100.00
2023-01-02T05:38:08.400Z,100.00
2023-01-02T05:39:12.695Z,100.00
2023-01-02T05:40:15.152Z,100.00
2023-01-02T05:41:17.552Z,100.00
2023-01-02T05:42:19.815Z,100.00
2023-01-02T05:43:22.050Z,100.00
2023-01-02T05:44:24.363Z,100.00
2023-01-02T05:45:27.107Z,100.00
2023-01-02T05:46:29.331Z,100.00
2023-01-02T05:47:31.536Z,100.00
2023-01-02T05:48:33.920Z,100.00
2023-01-02T05:49:36.157Z,100.00
2023-01-02T05:50:38.407Z,100.00
2023-01-02T05:51:40.629Z,100.00
2023-01-02T05:52:45.894Z,100.00
2023-01-02T05:53:48.654Z,100.00
2023-01-02T05:54:50.881Z,100.00
2023-01-02T05:55:53.119Z,100.00
2023-01-02T05:56:56.244Z,100.00
2023-01-02T05:57:59.312Z,100.00
2023-01-02T05:59:01.564Z,100.00
2023-01-02T06:00:04.167Z,100.00
2023-01-02T06:01:17.697Z,100.00
2023-01-02T06:02:20.034Z,100.00
2023-01-02T06:03:22.369Z,100.00
2023-01-02T06:04:24.648Z,100.00
2023-01-02T06:05:26.824Z,100.00
2023-01-02T06:06:35.292Z,100.00
2023-01-02T06:07:37.483Z,100.00
2023-01-02T06:08:40.138Z,100.00
2023-01-02T06:09:42.359Z,100.00
2023-01-02T06:10:51.813Z,100.00
2023-01-02T06:11:54.078Z,100.00
2023-01-02T06:12:56.929Z,100.00
2023-01-02T06:13:59.327Z,100.00
2023-01-02T06:15:01.611Z,100.00
2023-01-02T06:16:06.391Z,100.00
2023-01-02T06:17:08.642Z,100.00
2023-01-02T06:18:10.831Z,100.00
2023-01-02T06:19:13.040Z,100.00
2023-01-02T06:20:15.383Z,100.00
2023-01-02T06:21:20.681Z,100.00
2023-01-02T06:22:22.882Z,100.00
2023-01-02T06:23:25.186Z,100.00
2023-01-02T06:24:27.965Z,100.00
2023-01-02T06:25:31.245Z,100.00
2023-01-02T06:26:35.409Z,100.00
2023-01-02T06:27:37.950Z,100.00
2023-01-02T06:28:40.859Z,100.00
2023-01-02T06:29:43.046Z,100.00
2023-01-02T06:30:45.287Z,100.00
2023-01-02T06:31:51.414Z,100.00
2023-01-02T06:32:55.971Z,100.00
2023-01-02T06:34:00.405Z,100.00
2023-01-02T06:35:02.576Z,100.00
2023-01-02T06:36:18.491Z,100.00
2023-01-02T06:37:20.685Z,100.00
2023-01-02T06:38:22.993Z,100.00
2023-01-02T06:39:25.259Z,100.00
2023-01-02T06:40:27.474Z,100.00
2023-01-02T06:41:29.937Z,100.00
2023-01-02T06:42:33.213Z,100.00
2023-01-02T06:43:40.951Z,100.00
2023-01-02T06:44:43.295Z,100.00
2023-01-02T06:45:45.509Z,100.00
2023-01-02T06:46:47.730Z,100.00
2023-01-02T06:47:56.896Z,100.00
2023-01-02T06:49:01.113Z,100.00
2023-01-02T06:50:03.583Z,100.00
2023-01-02T06:51:07.259Z,100.00
2023-01-02T06:52:09.457Z,100.00
2023-01-02T06:53:12.716Z,100.00
2023-01-02T06:54:15.106Z,100.00
2023-01-02T06:55:17.251Z,100.00
2023-01-02T06:56:20.772Z,100.00
2023-01-02T06:57:23.142Z,100.00
2023-01-02T06:58:28.868Z,100.00
2023-01-02T06:59:31.080Z,100.00
2023-01-02T07:00:33.468Z,100.00
2023-01-02T07:01:35.858Z,100.00
2023-01-02T07:02:38.321Z,100.00
2023-01-02T07:03:40.824Z,100.00
2023-01-02T07:04:42.985Z,100.00
2023-01-02T07:05:45.560Z,100.00
2023-01-02T07:06:47.789Z,100.00
2023-01-02T07:07:49.970Z,100.00
2023-01-02T07:08:52.215Z,100.00
2023-01-02T07:09:54.379Z,100.00
2023-01-02T07:11:16.020Z,100.00
2023-01-02T07:12:20.004Z,100.00
2023-01-02T07:13:22.245Z,100.00
2023-01-02T07:14:24.871Z,100.00
2023-01-02T07:15:27.183Z,100.00
2023-01-02T07:16:29.425Z,100.00
2023-01-02T07:17:32.628Z,100.00
2023-01-02T07:18:36.105Z,100.00
2023-01-02T07:19:38.251Z,100.00
2023-01-02T07:20:40.447Z,100.00
2023-01-02T07:21:42.696Z,100.00
2023-01-02T07:22:52.200Z,100.00
2023-01-02T07:23:54.442Z,100.00
2023-01-02T07:24:56.654Z,100.00
2023-01-02T07:26:01.524Z,100.00
2023-01-02T07:27:03.820Z,100.00
2023-01-02T07:28:06.023Z,100.00
2023-01-02T07:29:08.671Z,100.00
2023-01-02T07:30:11.561Z,100.00
2023-01-02T07:31:16.699Z,100.00
2023-01-02T07:32:23.958Z,100.00
2023-01-02T07:33:30.918Z,100.00
2023-01-02T07:34:33.154Z,100.00
2023-01-02T07:35:35.320Z,100.00
2023-01-02T07:36:37.544Z,100.00
2023-01-02T07:37:39.714Z,100.00
2023-01-02T07:38:41.950Z,100.00
2023-01-02T07:39:45.252Z,100.00
2023-01-02T07:40:47.697Z,100.00
2023-01-02T07:41:49.928Z,100.00
2023-01-02T07:42:54.381Z,100.00
2023-01-02T07:43:56.643Z,100.00
2023-01-02T07:44:59.219Z,100.00
2023-01-02T07:46:03.965Z,100.00
2023-01-02T07:47:06.152Z,100.00
2023-01-02T07:48:08.448Z,100.00
2023-01-02T07:49:13.535Z,100.00
2023-01-02T07:50:15.968Z,100.00
2023-01-02T07:51:26.339Z,100.00
2023-01-02T07:52:30.532Z,100.00
2023-01-02T07:53:33.146Z,100.00
2023-01-02T07:54:35.375Z,100.00
2023-01-02T07:55:37.574Z,100.00
2023-01-02T07:56:39.807Z,100.00
2023-01-02T07:57:42.110Z,100.00
2023-01-02T07:58:44.342Z,100.00
2023-01-02T07:59:47.127Z,100.00
2023-01-02T08:00:49.624Z,100.00
2023-01-02T08:01:51.960Z,100.00
2023-01-02T08:02:55.048Z,100.00
2023-01-02T08:03:57.309Z,100.00
2023-01-02T08:04:59.668Z,100.00
2023-01-02T08:06:10.611Z,100.00
2023-01-02T08:07:12.782Z,100.00
2023-01-02T08:08:15.167Z,100.00
2023-01-02T08:09:17.366Z,100.00
2023-01-02T08:10:20.200Z,100.00
2023-01-02T08:11:23.043Z,100.00
2023-01-02T08:12:25.307Z,100.00
2023-01-02T08:13:27.641Z,100.00
2023-01-02T08:14:30.013Z,100.00
2023-01-02T08:15:32.580Z,100.00
2023-01-02T08:16:34.756Z,100.00
2023-01-02T08:17:37.189Z,100.00
2023-01-02T08:18:39.499Z,100.00
2023-01-02T08:19:41.685Z,100.00
2023-01-02T08:20:43.899Z,100.00
2023-01-02T08:21:46.153Z,100.00
2023-01-02T08:22:49.060Z,100.00
2023-01-02T08:23:51.707Z,100.00
2023-01-02T08:24:53.871Z,100.00
2023-01-02T08:26:00.226Z,100.00
2023-01-02T08:27:02.439Z,100.00
2023-01-02T08:28:04.682Z,100.00
2023-01-02T08:29:09.073Z,100.00
2023-01-02T08:30:11.803Z,100.00
2023-01-02T08:31:17.121Z,100.00
2023-01-02T08:32:19.471Z,100.00
2023-01-02T08:33:21.862Z,100.00
2023-01-02T08:34:24.214Z,100.00
2023-01-02T08:35:38.070Z,100.00
2023-01-02T08:36:42.053Z,100.00
2023-01-02T08:37:50.133Z,100.00
2023-01-02T08:38:53.644Z,100.00
2023-01-02T08:39:55.792Z,100.00
2023-01-02T08:40:59.138Z,100.00
2023-01-02T08:42:02.056Z,100.00
2023-01-02T08:43:04.248Z,100.00
2023-01-02T08:44:07.346Z,100.00
2023-01-02T08:45:10.156Z,100.00
2023-01-02T08:46:12.377Z,100.00
2023-01-02T08:47:14.681Z,100.00
2023-01-02T08:48:20.372Z,100.00
2023-01-02T08:49:23.545Z,100.00
2023-01-02T08:50:26.289Z,100.00
2023-01-02T08:51:28.786Z,100.00
2023-01-02T08:52:31.407Z,100.00
2023-01-02T08:53:35.156Z,100.00
2023-01-02T08:54:37.471Z,100.00
2023-01-02T08:55:39.841Z,100.00
2023-01-02T08:56:42.606Z,100.00
2023-01-02T08:57:44.944Z,100.00
2023-01-02T08:58:52.789Z,100.00
2023-01-02T08:59:56.476Z,100.00
2023-01-02T09:00:59.015Z,100.00
2023-01-02T09:02:01.430Z,100.00
2023-01-02T09:03:03.895Z,100.00
2023-01-02T09:04:11.848Z,100.00
2023-01-02T09:05:15.131Z,100.00
2023-01-02T09:06:21.749Z,100.00
2023-01-02T09:07:25.715Z,100.00
2023-01-02T09:08:28.464Z,100.00
2023-01-02T09:09:30.847Z,100.00
2023-01-02T09:10:33.278Z,100.00
2023-01-02T09:11:39.017Z,100.00
2023-01-02T09:12:41.493Z,100.00
2023-01-02T09:13:43.852Z,100.00
2023-01-02T09:14:46.314Z,100.00
2023-01-02T09:15:48.569Z,100.00
2023-01-02T09:16:51.671Z,100.00
2023-01-02T09:17:53.960Z,100.00
2023-01-02T09:18:58.086Z,100.00
2023-01-02T09:20:00.375Z,100.00
2023-01-02T09:21:02.725Z,100.00
2023-01-02T09:22:05.586Z,100.00
2023-01-02T09:23:07.850Z,100.00
2023-01-02T09:24:10.416Z,100.00
2023-01-02T09:25:12.634Z,100.00
2023-01-02T09:26:15.245Z,100.00
2023-01-02T09:27:17.470Z,100.00
2023-01-02T09:28:19.725Z,100.00
2023-01-02T09:29:22.016Z,100.00
2023-01-02T09:30:24.324Z,100.00
2023-01-02T09:31:26.730Z,100.00
2023-01-02T09:32:30.434Z,100.00
2023-01-02T09:33:32.978Z,100.00
2023-01-02T09:34:35.186Z,100.00
2023-01-02T09:35:37.465Z,100.00
2023-01-02T09:36:39.807Z,100.00
2023-01-02T09:37:44.436Z,100.00
2023-01-02T09:38:54.270Z,100.00
2023-01-02T09:39:56.488Z,100.00
2023-01-02T09:41:01.182Z,100.00
2023-01-02T09:42:08.275Z,100.00
2023-01-02T09:43:11.127Z,100.00
2023-01-02T09:44:21.248Z,100.00
2023-01-02T09:45:23.942Z,100.00
2023-01-02T09:46:41.371Z,100.00
2023-01-02T09:47:46.897Z,100.00
2023-01-02T09:48:49.187Z,100.00
2023-01-02T09:49:54.929Z,100.00
2023-01-02T09:50:59.369Z,100.00
2023-01-02T09:52:07.561Z,100.00
2023-01-02T09:53:10.237Z,100.00
2023-01-02T09:54:19.326Z,100.00
2023-01-02T09:55:45.651Z,100.00
2023-01-02T09:56:55.071Z,100.00
2023-01-02T09:58:27.431Z,100.00
2023-01-02T09:59:35.307Z,100.00
2023-01-02T10:00:38.917Z,100.00
2023-01-02T10:02:03.896Z,100.00
2023-01-02T10:03:15.049Z,100.00
2023-01-02T10:04:46.541Z,100.00
2023-01-02T10:06:00.205Z,100.00
2023-01-02T10:07:09.224Z,100.00
2023-01-02T10:08:40.654Z,100.00
2023-01-02T10:09:57.599Z,100.00
2023-01-02T10:11:36.820Z,100.00
2023-01-02T10:13:23.812Z,100.00
2023-01-02T10:14:44.702Z,100.00
2023-01-02T10:15:50.347Z,100.00
2023-01-02T10:16:57.157Z,100.00
2023-01-02T10:18:17.517Z,100.00
2023-01-02T10:19:34.752Z,100.00
2023-01-02T10:20:41.523Z,100.00
2023-01-02T10:21:47.433Z,100.00
2023-01-02T10:22:52.947Z,100.00
2023-01-02T10:24:01.177Z,100.00
2023-01-02T10:25:23.566Z,100.00
2023-01-02T10:26:31.173Z,100.00
2023-01-02T10:27:41.088Z,100.00
2023-01-02T10:28:45.952Z,100.00
2023-01-02T10:30:04.086Z,100.00
2023-01-02T10:31:29.652Z,100.00
2023-01-02T10:32:34.471Z,100.00
2023-01-02T10:33:45.394Z,100.00
2023-01-02T10:34:56.101Z,100.00
2023-01-02T10:36:01.491Z,94.05
2023-01-02T10:37:11.848Z,93.06
2023-01-02T10:38:16.881Z,92.82
2023-01-02T10:39:31.478Z,92.57
2023-01-02T10:40:33.896Z,94.08
2023-01-02T10:41:36.564Z,95.37
2023-01-02T10:42:39.943Z,97.17
2023-01-02T10:43:42.186Z,93.45
2023-01-02T10:44:46.136Z,87.44
2023-01-02T10:45:48.312Z,89.85
2023-01-02T10:46:50.528Z,90.52
2023-01-02T10:47:52.804Z,92.01
2023-01-02T10:48:55.094Z,88.22
2023-01-02T10:49:57.733Z,92.35
2023-01-02T10:51:07.103Z,88.26
2023-01-02T10:52:27.864Z,86.96
2023-01-02T10:53:34.207Z,83.90
2023-01-02T10:54:59.549Z,83.37
2023-01-02T10:56:04.835Z,84.02
2023-01-02T10:57:20.414Z,84.17
2023-01-02T10:58:25.300Z,82.07
2023-01-02T10:59:29.130Z,82.40
2023-01-02T11:00:34.440Z,80.90
2023-01-02T11:01:49.617Z,83.49
2023-01-02T11:02:55.134Z,82.59
2023-01-02T11:03:59.819Z,81.70
2023-01-02T11:05:03.527Z,85.32
2023-01-02T11:06:27.526Z,84.79
2023-01-02T11:07:39.888Z,89.96
2023-01-02T11:08:42.085Z,86.14
2023-01-02T11:09:54.336Z,83.77
2023-01-02T11:10:56.548Z,83.36
2023-01-02T11:12:07.590Z,83.56
2023-01-02T11:13:18.671Z,85.10
2023-01-02T11:14:34.625Z,87.49
2023-01-02T11:15:47.739Z,85.48
2023-01-02T11:16:50.595Z,83.40
2023-01-02T11:17:52.954Z,82.42
2023-01-02T11:18:58.356Z,82.78
2023-01-02T11:20:00.656Z,87.55
2023-01-02T11:21:05.392Z,86.68
2023-01-02T11:22:09.147Z,84.47
2023-01-02T11:23:14.505Z,82.62
2023-01-02T11:24:19.792Z,82.40
2023-01-02T11:25:28.339Z,84.06
2023-01-02T11:26:32.731Z,85.36
2023-01-02T11:27:41.568Z,88.80
2023-01-02T11:28:43.805Z,87.69
2023-01-02T11:29:48.924Z,87.17
2023-01-02T11:30:55.191Z,89.04
2023-01-02T11:32:00.324Z,88.89
2023-01-02T11:33:19.566Z,91.50
2023-01-02T11:34:32.812Z,92.22
2023-01-02T11:35:50.825Z,90.44
2023-01-02T11:37:12.510Z,92.22
2023-01-02T11:38:21.638Z,92.15
2023-01-02T11:39:34.214Z,92.90
2023-01-02T11:40:36.400Z,90.27
2023-01-02T11:42:28.179Z,90.17
2023-01-02T11:43:52.092Z,92.13
2023-01-02T11:44:57.184Z,91.74
2023-01-02T11:45:59.444Z,90.61
2023-01-02T11:47:03.670Z,90.08
2023-01-02T11:48:17.888Z,90.39
2023-01-02T11:49:28.135Z,91.22
2023-01-02T11:50:39.991Z,92.22
2023-01-02T11:51:42.751Z,90.23
2023-01-02T11:52:54.848Z,91.58
2023-01-02T11:54:01.300Z,90.63
2023-01-02T11:55:17.731Z,90.75
2023-01-02T11:56:24.654Z,90.68
2023-01-02T11:57:38.562Z,90.26
2023-01-02T11:59:02.469Z,91.49
2023-01-02T12:00:14.882Z,90.78
2023-01-02T12:01:35.163Z,91.79
2023-01-02T12:02:47.528Z,93.63
2023-01-02T12:03:49.978Z,93.81
2023-01-02T12:04:52.233Z,92.59
2023-01-02T12:06:20.863Z,91.59
2023-01-02T12:07:42.522Z,92.69
2023-01-02T12:09:03.575Z,92.22
2023-01-02T12:10:37.943Z,95.74
2023-01-02T12:11:49.072Z,94.32
2023-01-02T12:13:24.728Z,95.02
2023-01-02T12:15:00.711Z,96.17
2023-01-02T12:16:10.525Z,97.76
2023-01-02T12:17:27.929Z,97.50
2023-01-02T12:18:49.186Z,97.61
2023-01-02T12:20:18.798Z,96.13
2023-01-02T12:21:42.588Z,98.99
2023-01-02T12:22:56.623Z,99.44
2023-01-02T12:24:49.157Z,100.00
2023-01-02T12:26:27.193Z,98.90
2023-01-02T12:27:46.630Z,100.00
2023-01-02T12:29:01.366Z,100.00
2023-01-02T12:30:13.749Z,100.00
2023-01-02T12:31:34.054Z,100.00
2023-01-02T12:32:57.907Z,100.00
2023-01-02T12:34:20.807Z,100.00
2023-01-02T12:35:23.192Z,100.00
2023-01-02T12:36:58.976Z,100.00
2023-01-02T12:38:05.674Z,100.00
2023-01-02T12:39:19.557Z,100.00
2023-01-02T12:40:21.717Z,100.00
2023-01-02T12:42:03.496Z,100.00
2023-01-02T12:43:28.701Z,100.00
2023-01-02T12:44:56.183Z,100.00
2023-01-02T12:46:16.961Z,100.00
2023-01-02T12:47:43.691Z,100.00
2023-01-02T12:49:11.701Z,100.00
2023-01-02T12:50:49.239Z,100.00
2023-01-02T12:52:18.357Z,100.00
2023-01-02T12:54:20.548Z,100.00
2023-01-02T12:55:49.260Z,100.00
2023-01-02T12:57:07.251Z,100.00
2023-01-02T12:58:28.347Z,100.00
2023-01-02T12:59:42.623Z,100.00
2023-01-02T13:01:00.791Z,100.00
2023-01-02T13:02:06.548Z,100.00
2023-01-02T13:03:34.806Z,100.00
2023-01-02T13:04:50.294Z,100.00
2023-01-02T13:05:59.027Z,100.00
2023-01-02T13:07:17.263Z,100.00
2023-01-02T13:09:01.225Z,100.00
2023-01-02T13:10:04.679Z,100.00
2023-01-02T13:11:09.778Z,100.00
2023-01-02T13:12:29.838Z,100.00
2023-01-02T13:13:35.698Z,100.00
2023-01-02T13:14:52.114Z,100.00
2023-01-02T13:16:10.335Z,100.00
2023-01-02T13:17:44.058Z,100.00
2023-01-02T13:19:00.433Z,100.00
2023-01-02T13:20:20.823Z,100.00
2023-01-02T13:21:33.969Z,100.00
2023-01-02T13:23:03.403Z,100.00
2023-01-02T13:24:10.622Z,100.00
2023-01-02T13:25:16.147Z,100.00
2023-01-02T13:26:25.288Z,100.00
2023-01-02T13:27:27.676Z,100.00
2023-01-02T13:28:30.175Z,100.00
2023-01-02T13:29:43.694Z,100.00
2023-01-02T13:31:00.987Z,100.00
2023-01-02T13:32:15.108Z,100.00
2023-01-02T13:33:32.273Z,100.00
2023-01-02T13:34:51.331Z,100.00
2023-01-02T13:35:53.715Z,100.00
2023-01-02T13:37:18.549Z,100.00
2023-01-02T13:38:25.460Z,100.00
2023-01-02T13:39:36.117Z,100.00
2023-01-02T13:40:38.354Z,100.00
2023-01-02T13:42:10.127Z,100.00
2023-01-02T13:43:17.584Z,100.00
2023-01-02T13:44:32.627Z,100.00
2023-01-02T13:45:45.597Z,100.00
2023-01-02T13:47:04.106Z,100.00
2023-01-02T13:48:20.821Z,100.00
2023-01-02T13:49:23.260Z,100.00
2023-01-02T13:50:29.812Z,100.00
2023-01-02T13:51:35.340Z,100.00
2023-01-02T13:52:39.836Z,100.00
2023-01-02T13:53:46.010Z,100.00
2023-01-02T13:55:21.024Z,100.00
2023-01-02T13:56:25.741Z,100.00
2023-01-02T13:57:28.000Z,100.00
2023-01-02T13:58:49.719Z,100.00
2023-01-02T14:00:04.123Z,100.00
2023-01-02T14:01:26.164Z,100.00
2023-01-02T14:02:28.864Z,100.00
2023-01-02T14:03:32.580Z,100.00
2023-01-02T14:04:37.058Z,100.00
2023-01-02T14:06:00.288Z,100.00
2023-01-02T14:07:29.505Z,100.00
2023-01-02T14:08:55.557Z,100.00
2023-01-02T14:10:09.886Z,100.00
2023-01-02T14:11:18.560Z,100.00
2023-01-02T14:12:20.900Z,100.00
2023-01-02T14:13:46.442Z,100.00
2023-01-02T14:14:52.698Z,100.00